Gallup Municipal Airport Gallup US
ICAO: KGUP
IATA: GUP
Category: Medium
Scheduled Services: No

Elevation: 6472 ft
TransAlt. 18000 ft.

Airport Communications:
ASOS:118.375
ALBUQUERQUE RDO:122.6
CTAF/UNICOM:122.95

KGUP Zoom In..

Runways:

(A) RW 06 length 7316 ft width 100 ft
LOC 111.70 / hdg 62

(B) RW 24 length 7316 ft width 100 ft
LOC 111.70 / hdg 242

Location; KGUP
Day. 20 / Time. 02.53 Zulu
* Altimeter: 30.25
* Temperature: 25° c. 77°f.
* Wind from: 270° Speed 07 kn.
Dewpoint: 08° c.
Visibility: 10 Statute Miles.
Clouds: Clear (automated report).

KGUP 200253Z AUTO 27007KT 10SM CLR 25/08 A3025 RMK AO2 WSHFT 0149 SLP054 T02500083 53009


Wind From 270°
Speed 07 kn.

 
 
jpsmedia.com for Web Design worldairports.se 2018   terms of use